LATI/TIA METAR and TAF weather

Enter ICAO airport designator
Station Type Date Time Source
LATI METAR 2020/03/28 08:50 UTC NOAA

LATI 280850Z VRB02KT 9999 FEW025 15/07 Q1013 NOSIG


Station Type Date Time Source
LATI Decoded METAR 2020/03/28 08:50 UTC NOAA

Tirana, Albania (LATI) 41-20N 019-47E 90M
Mar 28, 2020 - 04:50 AM EDT / 2020.03.28 0850 UTC
Wind: Variable at 2 MPH (2 KT):0
Visibility: greater than 7 mile(s):0
Sky conditions: mostly clear
Temperature: 59 F (15 C)
Dew Point: 44 F (7 C)
Relative Humidity: 58%
Pressure (altimeter): 29.91 in. Hg (1013 hPa)
ob: LATI 280850Z VRB02KT 9999 FEW025 15/07 Q1013 NOSIG
cycle: 9

Station Type Date Time Source
LATI TAF 2020/03/28 06:25 UTC NOAA

TAF LATI 280500Z 2806/2906 VRB03KT 9999 SCT040 BKN080
TEMPO 2810/2816 33010KT

Example: see airport list